sensor_id;sensor_type;location;lat;lon;timestamp;P1;durP1;ratioP1;P2;durP2;ratioP2
38240;SDS011;24037;49.536;8.500;2023-07-31T00:00:35;20.27;;;19.48;;
38240;SDS011;24037;49.536;8.500;2023-07-31T00:03:01;20.08;;;19.27;;
38240;SDS011;24037;49.536;8.500;2023-07-31T00:05:28;18.42;;;17.52;;
38240;SDS011;24037;49.536;8.500;2023-07-31T00:07:54;20.58;;;19.67;;
38240;SDS011;24037;49.536;8.500;2023-07-31T00:10:20;21.40;;;20.50;;
38240;SDS011;24037;49.536;8.500;2023-07-31T00:12:47;19.27;;;18.58;;
38240;SDS011;24037;49.536;8.500;2023-07-31T00:15:13;21.20;;;20.40;;
38240;SDS011;24037;49.536;8.500;2023-07-31T00:17:40;19.45;;;18.58;;
38240;SDS011;24037;49.536;8.500;2023-07-31T00:20:06;20.45;;;19.55;;
38240;SDS011;24037;49.536;8.500;2023-07-31T00:22:33;20.90;;;20.00;;
38240;SDS011;24037;49.536;8.500;2023-07-31T00:24:59;18.75;;;18.05;;
38240;SDS011;24037;49.536;8.500;2023-07-31T00:27:26;19.27;;;18.48;;
38240;SDS011;24037;49.536;8.500;2023-07-31T00:29:52;20.17;;;19.38;;
38240;SDS011;24037;49.536;8.500;2023-07-31T00:32:18;19.88;;;19.08;;
38240;SDS011;24037;49.536;8.500;2023-07-31T00:34:44;21.13;;;20.23;;
38240;SDS011;24037;49.536;8.500;2023-07-31T00:37:10;19.20;;;18.35;;
38240;SDS011;24037;49.536;8.500;2023-07-31T00:39:36;22.58;;;21.65;;
38240;SDS011;24037;49.536;8.500;2023-07-31T00:42:03;20.77;;;19.85;;
38240;SDS011;24037;49.536;8.500;2023-07-31T00:44:29;22.17;;;21.20;;
38240;SDS011;24037;49.536;8.500;2023-07-31T00:46:55;20.13;;;19.33;;
38240;SDS011;24037;49.536;8.500;2023-07-31T00:49:22;20.92;;;19.98;;
38240;SDS011;24037;49.536;8.500;2023-07-31T00:51:49;20.35;;;19.55;;
38240;SDS011;24037;49.536;8.500;2023-07-31T00:54:15;21.90;;;21.00;;
38240;SDS011;24037;49.536;8.500;2023-07-31T00:56:41;23.52;;;22.50;;
38240;SDS011;24037;49.536;8.500;2023-07-31T00:59:11;23.27;;;22.38;;
38240;SDS011;24037;49.536;8.500;2023-07-31T01:01:37;25.77;;;24.80;;
38240;SDS011;24037;49.536;8.500;2023-07-31T01:04:04;27.50;;;26.40;;
38240;SDS011;24037;49.536;8.500;2023-07-31T01:09:03;27.80;;;26.70;;
38240;SDS011;24037;49.536;8.500;2023-07-31T01:11:46;25.63;;;24.60;;
38240;SDS011;24037;49.536;8.500;2023-07-31T01:14:17;25.00;;;23.98;;
38240;SDS011;24037;49.536;8.500;2023-07-31T01:16:43;30.52;;;29.42;;
38240;SDS011;24037;49.536;8.500;2023-07-31T01:19:10;27.58;;;26.48;;
38240;SDS011;24037;49.536;8.500;2023-07-31T01:24:49;32.15;;;30.95;;
38240;SDS011;24037;49.536;8.500;2023-07-31T01:27:42;26.13;;;25.13;;
38240;SDS011;24037;49.536;8.500;2023-07-31T01:30:16;24.85;;;23.85;;
38240;SDS011;24037;49.536;8.500;2023-07-31T01:35:13;24.58;;;23.58;;
38240;SDS011;24037;49.536;8.500;2023-07-31T01:37:40;29.00;;;27.90;;
38240;SDS011;24037;49.536;8.500;2023-07-31T01:40:06;29.95;;;28.85;;
38240;SDS011;24037;49.536;8.500;2023-07-31T01:42:32;32.67;;;31.40;;
38240;SDS011;24037;49.536;8.500;2023-07-31T01:44:59;26.13;;;25.13;;
38240;SDS011;24037;49.536;8.500;2023-07-31T01:47:25;33.47;;;32.17;;
38240;SDS011;24037;49.536;8.500;2023-07-31T01:49:51;31.27;;;29.98;;
38240;SDS011;24037;49.536;8.500;2023-07-31T01:52:17;34.15;;;32.85;;
38240;SDS011;24037;49.536;8.500;2023-07-31T01:54:43;32.17;;;30.80;;
38240;SDS011;24037;49.536;8.500;2023-07-31T01:57:09;32.72;;;31.40;;
38240;SDS011;24037;49.536;8.500;2023-07-31T01:59:35;34.38;;;33.00;;
38240;SDS011;24037;49.536;8.500;2023-07-31T02:02:02;29.65;;;28.45;;
38240;SDS011;24037;49.536;8.500;2023-07-31T02:04:29;28.05;;;26.95;;
38240;SDS011;24037;49.536;8.500;2023-07-31T02:06:55;27.75;;;26.75;;
38240;SDS011;24037;49.536;8.500;2023-07-31T02:09:22;27.83;;;26.73;;
38240;SDS011;24037;49.536;8.500;2023-07-31T02:11:48;26.38;;;25.38;;
38240;SDS011;24037;49.536;8.500;2023-07-31T02:14:14;25.60;;;24.60;;
38240;SDS011;24037;49.536;8.500;2023-07-31T02:16:40;25.67;;;24.67;;
38240;SDS011;24037;49.536;8.500;2023-07-31T02:19:08;28.30;;;27.20;;
38240;SDS011;24037;49.536;8.500;2023-07-31T02:21:34;26.23;;;25.23;;
38240;SDS011;24037;49.536;8.500;2023-07-31T02:24:00;26.75;;;25.65;;
38240;SDS011;24037;49.536;8.500;2023-07-31T02:26:27;26.58;;;25.52;;
38240;SDS011;24037;49.536;8.500;2023-07-31T02:28:53;26.40;;;25.35;;
38240;SDS011;24037;49.536;8.500;2023-07-31T02:31:19;30.63;;;29.42;;
38240;SDS011;24037;49.536;8.500;2023-07-31T02:33:45;30.65;;;29.52;;
38240;SDS011;24037;49.536;8.500;2023-07-31T02:36:11;29.33;;;28.23;;
38240;SDS011;24037;49.536;8.500;2023-07-31T02:38:37;27.75;;;26.65;;
38240;SDS011;24037;49.536;8.500;2023-07-31T02:41:05;29.83;;;28.63;;
38240;SDS011;24037;49.536;8.500;2023-07-31T02:43:32;29.77;;;28.60;;
38240;SDS011;24037;49.536;8.500;2023-07-31T02:45:59;31.00;;;29.70;;
38240;SDS011;24037;49.536;8.500;2023-07-31T02:48:26;29.45;;;28.25;;
38240;SDS011;24037;49.536;8.500;2023-07-31T02:50:53;30.77;;;29.38;;
38240;SDS011;24037;49.536;8.500;2023-07-31T02:53:19;29.52;;;28.35;;
38240;SDS011;24037;49.536;8.500;2023-07-31T02:55:45;33.33;;;32.05;;
38240;SDS011;24037;49.536;8.500;2023-07-31T02:58:12;29.20;;;28.10;;
38240;SDS011;24037;49.536;8.500;2023-07-31T03:00:41;31.92;;;30.60;;
38240;SDS011;24037;49.536;8.500;2023-07-31T03:05:35;33.60;;;32.30;;
38240;SDS011;24037;49.536;8.500;2023-07-31T03:08:01;27.67;;;26.67;;
38240;SDS011;24037;49.536;8.500;2023-07-31T03:10:28;28.10;;;27.02;;
38240;SDS011;24037;49.536;8.500;2023-07-31T03:12:54;30.73;;;29.52;;
38240;SDS011;24037;49.536;8.500;2023-07-31T03:15:20;26.65;;;25.55;;
38240;SDS011;24037;49.536;8.500;2023-07-31T03:17:46;26.90;;;25.80;;
38240;SDS011;24037;49.536;8.500;2023-07-31T03:20:12;26.52;;;25.38;;
38240;SDS011;24037;49.536;8.500;2023-07-31T03:22:39;26.58;;;25.48;;
38240;SDS011;24037;49.536;8.500;2023-07-31T03:25:05;24.17;;;23.27;;
38240;SDS011;24037;49.536;8.500;2023-07-31T03:27:31;27.13;;;26.13;;
38240;SDS011;24037;49.536;8.500;2023-07-31T03:29:59;26.80;;;25.80;;
38240;SDS011;24037;49.536;8.500;2023-07-31T03:32:26;25.35;;;24.42;;
38240;SDS011;24037;49.536;8.500;2023-07-31T03:34:53;25.95;;;24.85;;
38240;SDS011;24037;49.536;8.500;2023-07-31T03:37:19;26.85;;;25.85;;
38240;SDS011;24037;49.536;8.500;2023-07-31T03:39:45;25.67;;;24.67;;
38240;SDS011;24037;49.536;8.500;2023-07-31T03:42:11;27.05;;;25.95;;
38240;SDS011;24037;49.536;8.500;2023-07-31T03:44:37;26.85;;;25.75;;
38240;SDS011;24037;49.536;8.500;2023-07-31T03:47:04;25.25;;;24.33;;
38240;SDS011;24037;49.536;8.500;2023-07-31T03:49:31;26.38;;;25.27;;
38240;SDS011;24037;49.536;8.500;2023-07-31T03:51:57;23.88;;;22.88;;
38240;SDS011;24037;49.536;8.500;2023-07-31T03:54:23;23.75;;;22.85;;
38240;SDS011;24037;49.536;8.500;2023-07-31T03:56:50;27.00;;;25.90;;
38240;SDS011;24037;49.536;8.500;2023-07-31T03:59:16;23.92;;;22.92;;
38240;SDS011;24037;49.536;8.500;2023-07-31T04:01:42;23.02;;;22.10;;
38240;SDS011;24037;49.536;8.500;2023-07-31T04:04:08;23.08;;;22.17;;
38240;SDS011;24037;49.536;8.500;2023-07-31T04:06:34;22.58;;;21.67;;
38240;SDS011;24037;49.536;8.500;2023-07-31T04:09:01;20.15;;;19.35;;
38240;SDS011;24037;49.536;8.500;2023-07-31T04:11:28;21.23;;;20.25;;
38240;SDS011;24037;49.536;8.500;2023-07-31T04:13:54;21.42;;;20.52;;
38240;SDS011;24037;49.536;8.500;2023-07-31T04:16:20;22.60;;;21.70;;
38240;SDS011;24037;49.536;8.500;2023-07-31T04:18:46;23.20;;;22.30;;
38240;SDS011;24037;49.536;8.500;2023-07-31T04:21:12;22.00;;;21.10;;
38240;SDS011;24037;49.536;8.500;2023-07-31T04:23:38;21.50;;;20.55;;
38240;SDS011;24037;49.536;8.500;2023-07-31T04:26:04;24.38;;;23.38;;
38240;SDS011;24037;49.536;8.500;2023-07-31T04:28:31;22.75;;;21.63;;
38240;SDS011;24037;49.536;8.500;2023-07-31T04:30:59;23.08;;;22.10;;
38240;SDS011;24037;49.536;8.500;2023-07-31T04:33:26;22.58;;;21.30;;
38240;SDS011;24037;49.536;8.500;2023-07-31T04:35:52;23.23;;;22.20;;
38240;SDS011;24037;49.536;8.500;2023-07-31T04:38:19;23.08;;;22.08;;
38240;SDS011;24037;49.536;8.500;2023-07-31T04:40:46;23.55;;;22.55;;
38240;SDS011;24037;49.536;8.500;2023-07-31T04:43:13;24.15;;;23.15;;
38240;SDS011;24037;49.536;8.500;2023-07-31T04:45:39;25.00;;;24.00;;
38240;SDS011;24037;49.536;8.500;2023-07-31T04:48:07;25.33;;;24.13;;
38240;SDS011;24037;49.536;8.500;2023-07-31T04:50:34;24.25;;;23.35;;
38240;SDS011;24037;49.536;8.500;2023-07-31T04:53:00;24.63;;;23.60;;
38240;SDS011;24037;49.536;8.500;2023-07-31T04:55:26;25.02;;;24.02;;
38240;SDS011;24037;49.536;8.500;2023-07-31T04:57:52;22.60;;;21.70;;
38240;SDS011;24037;49.536;8.500;2023-07-31T05:00:18;23.20;;;21.98;;
38240;SDS011;24037;49.536;8.500;2023-07-31T05:02:44;22.45;;;21.55;;
38240;SDS011;24037;49.536;8.500;2023-07-31T05:05:10;23.90;;;22.75;;
38240;SDS011;24037;49.536;8.500;2023-07-31T05:07:37;22.52;;;21.52;;
38240;SDS011;24037;49.536;8.500;2023-07-31T05:10:03;21.38;;;20.42;;
38240;SDS011;24037;49.536;8.500;2023-07-31T05:12:29;23.80;;;22.85;;
38240;SDS011;24037;49.536;8.500;2023-07-31T05:14:55;20.60;;;19.80;;
38240;SDS011;24037;49.536;8.500;2023-07-31T05:17:21;24.27;;;23.38;;
38240;SDS011;24037;49.536;8.500;2023-07-31T05:19:48;22.17;;;21.27;;
38240;SDS011;24037;49.536;8.500;2023-07-31T05:22:14;22.00;;;21.17;;
38240;SDS011;24037;49.536;8.500;2023-07-31T05:24:40;20.67;;;19.88;;
38240;SDS011;24037;49.536;8.500;2023-07-31T05:27:06;20.23;;;19.30;;
38240;SDS011;24037;49.536;8.500;2023-07-31T05:29:33;21.55;;;20.65;;
38240;SDS011;24037;49.536;8.500;2023-07-31T05:31:59;22.95;;;22.05;;
38240;SDS011;24037;49.536;8.500;2023-07-31T05:34:25;21.40;;;20.50;;
38240;SDS011;24037;49.536;8.500;2023-07-31T05:36:51;21.55;;;20.65;;
38240;SDS011;24037;49.536;8.500;2023-07-31T05:39:17;19.80;;;19.00;;
38240;SDS011;24037;49.536;8.500;2023-07-31T05:41:45;21.27;;;20.38;;
38240;SDS011;24037;49.536;8.500;2023-07-31T05:44:11;20.83;;;19.77;;
38240;SDS011;24037;49.536;8.500;2023-07-31T05:46:37;22.45;;;21.60;;
38240;SDS011;24037;49.536;8.500;2023-07-31T05:49:03;21.20;;;20.38;;
38240;SDS011;24037;49.536;8.500;2023-07-31T05:51:29;21.80;;;20.83;;
38240;SDS011;24037;49.536;8.500;2023-07-31T05:53:56;20.52;;;19.70;;
38240;SDS011;24037;49.536;8.500;2023-07-31T05:56:22;20.95;;;20.10;;
38240;SDS011;24037;49.536;8.500;2023-07-31T05:58:48;20.85;;;19.95;;
38240;SDS011;24037;49.536;8.500;2023-07-31T06:01:16;20.67;;;19.88;;
38240;SDS011;24037;49.536;8.500;2023-07-31T06:03:42;19.95;;;19.15;;
38240;SDS011;24037;49.536;8.500;2023-07-31T06:06:09;20.40;;;19.58;;
38240;SDS011;24037;49.536;8.500;2023-07-31T06:08:36;20.70;;;19.80;;
38240;SDS011;24037;49.536;8.500;2023-07-31T06:11:02;20.98;;;19.98;;
38240;SDS011;24037;49.536;8.500;2023-07-31T06:13:29;20.50;;;19.70;;
38240;SDS011;24037;49.536;8.500;2023-07-31T06:15:55;18.88;;;18.15;;
38240;SDS011;24037;49.536;8.500;2023-07-31T06:18:21;20.15;;;19.27;;
38240;SDS011;24037;49.536;8.500;2023-07-31T06:20:47;19.00;;;18.10;;
38240;SDS011;24037;49.536;8.500;2023-07-31T06:23:19;19.45;;;18.58;;
38240;SDS011;24037;49.536;8.500;2023-07-31T06:25:46;18.75;;;18.05;;
38240;SDS011;24037;49.536;8.500;2023-07-31T06:28:12;17.38;;;16.67;;
38240;SDS011;24037;49.536;8.500;2023-07-31T06:30:38;20.83;;;19.92;;
38240;SDS011;24037;49.536;8.500;2023-07-31T06:33:04;23.48;;;22.48;;
38240;SDS011;24037;49.536;8.500;2023-07-31T06:35:31;19.92;;;19.00;;
38240;SDS011;24037;49.536;8.500;2023-07-31T06:37:57;20.38;;;19.58;;
38240;SDS011;24037;49.536;8.500;2023-07-31T06:40:23;22.77;;;21.65;;
38240;SDS011;24037;49.536;8.500;2023-07-31T06:42:49;21.23;;;20.33;;
38240;SDS011;24037;49.536;8.500;2023-07-31T06:45:15;24.60;;;23.60;;
38240;SDS011;24037;49.536;8.500;2023-07-31T06:47:41;24.80;;;23.80;;
38240;SDS011;24037;49.536;8.500;2023-07-31T06:50:07;24.40;;;23.48;;
38240;SDS011;24037;49.536;8.500;2023-07-31T06:52:34;25.33;;;24.23;;
38240;SDS011;24037;49.536;8.500;2023-07-31T06:55:03;28.17;;;27.08;;
38240;SDS011;24037;49.536;8.500;2023-07-31T06:57:44;29.73;;;28.63;;
38240;SDS011;24037;49.536;8.500;2023-07-31T07:00:10;34.03;;;32.72;;
38240;SDS011;24037;49.536;8.500;2023-07-31T07:02:38;41.55;;;40.00;;
38240;SDS011;24037;49.536;8.500;2023-07-31T07:05:04;23.63;;;22.73;;
38240;SDS011;24037;49.536;8.500;2023-07-31T07:07:32;27.83;;;26.52;;
38240;SDS011;24037;49.536;8.500;2023-07-31T07:09:58;23.27;;;22.35;;
38240;SDS011;24037;49.536;8.500;2023-07-31T07:14:55;33.97;;;32.67;;
38240;SDS011;24037;49.536;8.500;2023-07-31T07:17:23;21.15;;;20.35;;
38240;SDS011;24037;49.536;8.500;2023-07-31T07:19:50;21.63;;;20.73;;
38240;SDS011;24037;49.536;8.500;2023-07-31T07:22:16;24.55;;;23.55;;
38240;SDS011;24037;49.536;8.500;2023-07-31T07:24:43;21.23;;;20.33;;
38240;SDS011;24037;49.536;8.500;2023-07-31T07:27:09;20.23;;;19.42;;
38240;SDS011;24037;49.536;8.500;2023-07-31T07:29:35;25.52;;;24.42;;
38240;SDS011;24037;49.536;8.500;2023-07-31T07:32:01;22.92;;;22.02;;
38240;SDS011;24037;49.536;8.500;2023-07-31T07:34:27;25.20;;;24.17;;
38240;SDS011;24037;49.536;8.500;2023-07-31T07:36:54;25.55;;;24.52;;
38240;SDS011;24037;49.536;8.500;2023-07-31T07:39:20;26.35;;;25.05;;
38240;SDS011;24037;49.536;8.500;2023-07-31T07:41:47;24.85;;;23.85;;
38240;SDS011;24037;49.536;8.500;2023-07-31T07:44:13;24.45;;;23.45;;
38240;SDS011;24037;49.536;8.500;2023-07-31T07:46:40;26.48;;;25.27;;
38240;SDS011;24037;49.536;8.500;2023-07-31T07:49:06;30.23;;;29.02;;
38240;SDS011;24037;49.536;8.500;2023-07-31T07:51:33;36.03;;;34.72;;
38240;SDS011;24037;49.536;8.500;2023-07-31T07:53:59;35.85;;;34.50;;
38240;SDS011;24037;49.536;8.500;2023-07-31T07:56:25;31.08;;;29.88;;
38240;SDS011;24037;49.536;8.500;2023-07-31T07:58:52;29.42;;;28.33;;
38240;SDS011;24037;49.536;8.500;2023-07-31T08:01:19;35.92;;;34.53;;
38240;SDS011;24037;49.536;8.500;2023-07-31T08:03:46;46.85;;;45.08;;
38240;SDS011;24037;49.536;8.500;2023-07-31T08:06:13;41.90;;;40.40;;
38240;SDS011;24037;49.536;8.500;2023-07-31T08:08:40;45.42;;;43.75;;
38240;SDS011;24037;49.536;8.500;2023-07-31T08:11:06;35.42;;;34.13;;
38240;SDS011;24037;49.536;8.500;2023-07-31T08:13:32;22.80;;;21.80;;
38240;SDS011;24037;49.536;8.500;2023-07-31T08:15:59;40.80;;;39.33;;
38240;SDS011;24037;49.536;8.500;2023-07-31T08:18:25;38.63;;;37.22;;
38240;SDS011;24037;49.536;8.500;2023-07-31T08:20:51;34.25;;;32.95;;
38240;SDS011;24037;49.536;8.500;2023-07-31T08:23:17;31.38;;;30.08;;
38240;SDS011;24037;49.536;8.500;2023-07-31T08:25:44;25.10;;;24.10;;
38240;SDS011;24037;49.536;8.500;2023-07-31T08:28:12;21.48;;;20.58;;
38240;SDS011;24037;49.536;8.500;2023-07-31T08:30:38;20.90;;;20.10;;
38240;SDS011;24037;49.536;8.500;2023-07-31T08:33:04;24.08;;;23.08;;
38240;SDS011;24037;49.536;8.500;2023-07-31T08:35:30;26.83;;;25.77;;
38240;SDS011;24037;49.536;8.500;2023-07-31T08:37:56;24.98;;;24.08;;
38240;SDS011;24037;49.536;8.500;2023-07-31T08:40:22;23.23;;;22.30;;
38240;SDS011;24037;49.536;8.500;2023-07-31T08:42:50;20.67;;;19.77;;
38240;SDS011;24037;49.536;8.500;2023-07-31T08:45:19;19.30;;;18.48;;
38240;SDS011;24037;49.536;8.500;2023-07-31T08:47:47;19.90;;;18.90;;
38240;SDS011;24037;49.536;8.500;2023-07-31T08:50:15;21.35;;;20.45;;
38240;SDS011;24037;49.536;8.500;2023-07-31T08:52:42;23.90;;;22.92;;
38240;SDS011;24037;49.536;8.500;2023-07-31T08:55:08;34.42;;;33.10;;
38240;SDS011;24037;49.536;8.500;2023-07-31T08:57:37;33.28;;;31.98;;
38240;SDS011;24037;49.536;8.500;2023-07-31T09:00:04;34.17;;;32.78;;
38240;SDS011;24037;49.536;8.500;2023-07-31T09:05:12;31.58;;;30.08;;
38240;SDS011;24037;49.536;8.500;2023-07-31T09:07:38;30.40;;;29.10;;
38240;SDS011;24037;49.536;8.500;2023-07-31T09:10:06;29.17;;;27.88;;
38240;SDS011;24037;49.536;8.500;2023-07-31T09:12:32;30.13;;;29.02;;
38240;SDS011;24037;49.536;8.500;2023-07-31T09:14:59;34.45;;;33.05;;
38240;SDS011;24037;49.536;8.500;2023-07-31T09:17:30;30.48;;;29.35;;
38240;SDS011;24037;49.536;8.500;2023-07-31T09:19:57;26.90;;;25.80;;
38240;SDS011;24037;49.536;8.500;2023-07-31T09:22:38;24.27;;;23.38;;
38240;SDS011;24037;49.536;8.500;2023-07-31T09:25:14;26.08;;;24.98;;
38240;SDS011;24037;49.536;8.500;2023-07-31T09:30:19;27.23;;;26.15;;
38240;SDS011;24037;49.536;8.500;2023-07-31T09:32:46;21.80;;;20.92;;
38240;SDS011;24037;49.536;8.500;2023-07-31T09:37:59;21.17;;;20.38;;
38240;SDS011;24037;49.536;8.500;2023-07-31T09:40:49;23.48;;;22.52;;
38240;SDS011;24037;49.536;8.500;2023-07-31T09:43:18;25.85;;;24.75;;
38240;SDS011;24037;49.536;8.500;2023-07-31T09:45:46;28.85;;;27.65;;
38240;SDS011;24037;49.536;8.500;2023-07-31T09:48:13;28.92;;;27.77;;
38240;SDS011;24037;49.536;8.500;2023-07-31T09:50:44;27.77;;;26.73;;
38240;SDS011;24037;49.536;8.500;2023-07-31T09:53:11;28.77;;;27.58;;
38240;SDS011;24037;49.536;8.500;2023-07-31T09:55:39;29.75;;;28.60;;
38240;SDS011;24037;49.536;8.500;2023-07-31T09:58:06;29.52;;;28.20;;
38240;SDS011;24037;49.536;8.500;2023-07-31T10:00:35;27.45;;;26.33;;
38240;SDS011;24037;49.536;8.500;2023-07-31T10:03:04;30.75;;;29.55;;
38240;SDS011;24037;49.536;8.500;2023-07-31T10:05:38;34.67;;;33.25;;
38240;SDS011;24037;49.536;8.500;2023-07-31T10:08:08;40.03;;;38.33;;
38240;SDS011;24037;49.536;8.500;2023-07-31T10:10:35;43.30;;;41.55;;
38240;SDS011;24037;49.536;8.500;2023-07-31T10:13:03;41.17;;;39.60;;
38240;SDS011;24037;49.536;8.500;2023-07-31T10:15:30;48.63;;;46.83;;
38240;SDS011;24037;49.536;8.500;2023-07-31T10:17:58;46.40;;;44.65;;
38240;SDS011;24037;49.536;8.500;2023-07-31T10:20:24;42.03;;;40.45;;
38240;SDS011;24037;49.536;8.500;2023-07-31T10:22:53;37.78;;;36.38;;
38240;SDS011;24037;49.536;8.500;2023-07-31T10:25:20;46.25;;;44.45;;
38240;SDS011;24037;49.536;8.500;2023-07-31T10:27:47;39.70;;;38.20;;
38240;SDS011;24037;49.536;8.500;2023-07-31T10:30:16;36.55;;;35.15;;
38240;SDS011;24037;49.536;8.500;2023-07-31T10:32:44;32.20;;;30.90;;
38240;SDS011;24037;49.536;8.500;2023-07-31T10:35:12;32.92;;;31.63;;
38240;SDS011;24037;49.536;8.500;2023-07-31T10:37:40;28.23;;;27.02;;
38240;SDS011;24037;49.536;8.500;2023-07-31T10:40:18;29.45;;;28.25;;
38240;SDS011;24037;49.536;8.500;2023-07-31T10:42:50;33.05;;;31.65;;
38240;SDS011;24037;49.536;8.500;2023-07-31T10:45:33;28.38;;;27.20;;
38240;SDS011;24037;49.536;8.500;2023-07-31T10:48:04;27.77;;;26.58;;
38240;SDS011;24037;49.536;8.500;2023-07-31T10:50:48;31.30;;;29.90;;
38240;SDS011;24037;49.536;8.500;2023-07-31T10:53:36;29.50;;;28.25;;
38240;SDS011;24037;49.536;8.500;2023-07-31T10:56:04;28.00;;;26.73;;
38240;SDS011;24037;49.536;8.500;2023-07-31T10:58:34;25.80;;;24.73;;
38240;SDS011;24037;49.536;8.500;2023-07-31T11:01:02;26.15;;;25.05;;
38240;SDS011;24037;49.536;8.500;2023-07-31T11:03:46;24.10;;;23.10;;
38240;SDS011;24037;49.536;8.500;2023-07-31T11:06:18;23.30;;;22.30;;
38240;SDS011;24037;49.536;8.500;2023-07-31T11:08:44;23.17;;;22.17;;
38240;SDS011;24037;49.536;8.500;2023-07-31T11:11:15;26.02;;;24.73;;
38240;SDS011;24037;49.536;8.500;2023-07-31T11:16:21;26.58;;;25.35;;
38240;SDS011;24037;49.536;8.500;2023-07-31T11:18:50;28.42;;;27.17;;
38240;SDS011;24037;49.536;8.500;2023-07-31T11:21:21;27.88;;;26.77;;
38240;SDS011;24037;49.536;8.500;2023-07-31T11:23:51;28.38;;;27.17;;
38240;SDS011;24037;49.536;8.500;2023-07-31T11:26:19;26.02;;;24.92;;
38240;SDS011;24037;49.536;8.500;2023-07-31T11:28:49;28.17;;;27.08;;
38240;SDS011;24037;49.536;8.500;2023-07-31T11:31:15;27.52;;;26.38;;
38240;SDS011;24037;49.536;8.500;2023-07-31T11:33:42;27.48;;;26.38;;
38240;SDS011;24037;49.536;8.500;2023-07-31T11:36:15;28.40;;;27.10;;
38240;SDS011;24037;49.536;8.500;2023-07-31T11:38:43;26.90;;;25.80;;
38240;SDS011;24037;49.536;8.500;2023-07-31T11:41:09;29.27;;;28.02;;
38240;SDS011;24037;49.536;8.500;2023-07-31T11:43:35;28.92;;;27.65;;
38240;SDS011;24037;49.536;8.500;2023-07-31T11:46:04;24.48;;;23.48;;
38240;SDS011;24037;49.536;8.500;2023-07-31T11:48:33;28.50;;;27.27;;
38240;SDS011;24037;49.536;8.500;2023-07-31T11:51:05;28.53;;;27.30;;
38240;SDS011;24037;49.536;8.500;2023-07-31T11:53:50;28.85;;;27.55;;
38240;SDS011;24037;49.536;8.500;2023-07-31T11:56:19;27.27;;;26.10;;
38240;SDS011;24037;49.536;8.500;2023-07-31T11:58:47;32.15;;;30.85;;
38240;SDS011;24037;49.536;8.500;2023-07-31T12:01:15;35.08;;;33.78;;
38240;SDS011;24037;49.536;8.500;2023-07-31T12:03:44;38.28;;;36.75;;
38240;SDS011;24037;49.536;8.500;2023-07-31T12:06:11;41.17;;;39.67;;
38240;SDS011;24037;49.536;8.500;2023-07-31T12:08:37;37.25;;;35.75;;
38240;SDS011;24037;49.536;8.500;2023-07-31T12:11:04;35.25;;;33.95;;
38240;SDS011;24037;49.536;8.500;2023-07-31T12:13:35;36.30;;;34.90;;
38240;SDS011;24037;49.536;8.500;2023-07-31T12:16:02;31.98;;;30.77;;
38240;SDS011;24037;49.536;8.500;2023-07-31T12:18:33;35.83;;;34.38;;
38240;SDS011;24037;49.536;8.500;2023-07-31T12:21:01;35.30;;;33.90;;
38240;SDS011;24037;49.536;8.500;2023-07-31T12:23:30;37.58;;;36.20;;
38240;SDS011;24037;49.536;8.500;2023-07-31T12:26:11;39.30;;;37.78;;
38240;SDS011;24037;49.536;8.500;2023-07-31T12:28:43;31.83;;;30.52;;
38240;SDS011;24037;49.536;8.500;2023-07-31T12:31:11;29.75;;;28.52;;
38240;SDS011;24037;49.536;8.500;2023-07-31T12:33:39;29.83;;;28.63;;
38240;SDS011;24037;49.536;8.500;2023-07-31T12:36:08;30.60;;;29.40;;
38240;SDS011;24037;49.536;8.500;2023-07-31T12:38:35;31.20;;;29.88;;
38240;SDS011;24037;49.536;8.500;2023-07-31T12:41:01;35.33;;;33.90;;
38240;SDS011;24037;49.536;8.500;2023-07-31T12:43:28;37.95;;;36.47;;
38240;SDS011;24037;49.536;8.500;2023-07-31T12:45:54;42.53;;;40.95;;
38240;SDS011;24037;49.536;8.500;2023-07-31T12:48:22;41.95;;;40.35;;
38240;SDS011;24037;49.536;8.500;2023-07-31T12:50:48;41.03;;;39.45;;
38240;SDS011;24037;49.536;8.500;2023-07-31T12:53:15;39.53;;;37.78;;
38240;SDS011;24037;49.536;8.500;2023-07-31T12:55:41;36.92;;;35.45;;
38240;SDS011;24037;49.536;8.500;2023-07-31T12:58:08;34.30;;;33.03;;
38240;SDS011;24037;49.536;8.500;2023-07-31T13:00:34;35.92;;;34.53;;
38240;SDS011;24037;49.536;8.500;2023-07-31T13:03:00;38.13;;;36.70;;
38240;SDS011;24037;49.536;8.500;2023-07-31T13:05:28;37.15;;;35.53;;
38240;SDS011;24037;49.536;8.500;2023-07-31T13:07:54;34.65;;;33.25;;
38240;SDS011;24037;49.536;8.500;2023-07-31T13:10:22;35.80;;;34.45;;
38240;SDS011;24037;49.536;8.500;2023-07-31T13:12:49;36.05;;;34.65;;
38240;SDS011;24037;49.536;8.500;2023-07-31T13:15:22;29.05;;;27.85;;
38240;SDS011;24037;49.536;8.500;2023-07-31T13:17:52;34.47;;;33.17;;
38240;SDS011;24037;49.536;8.500;2023-07-31T13:20:18;32.40;;;31.05;;
38240;SDS011;24037;49.536;8.500;2023-07-31T13:22:44;34.80;;;33.47;;
38240;SDS011;24037;49.536;8.500;2023-07-31T13:25:10;36.05;;;34.75;;
38240;SDS011;24037;49.536;8.500;2023-07-31T13:27:36;36.13;;;34.83;;
38240;SDS011;24037;49.536;8.500;2023-07-31T13:30:02;35.25;;;33.95;;
38240;SDS011;24037;49.536;8.500;2023-07-31T13:32:29;33.83;;;32.10;;
38240;SDS011;24037;49.536;8.500;2023-07-31T13:34:55;31.15;;;30.02;;
38240;SDS011;24037;49.536;8.500;2023-07-31T13:37:21;38.10;;;36.70;;
38240;SDS011;24037;49.536;8.500;2023-07-31T13:39:47;41.05;;;39.47;;
38240;SDS011;24037;49.536;8.500;2023-07-31T13:42:13;44.47;;;42.80;;
38240;SDS011;24037;49.536;8.500;2023-07-31T13:44:40;45.72;;;44.05;;
38240;SDS011;24037;49.536;8.500;2023-07-31T13:47:07;43.83;;;42.03;;
38240;SDS011;24037;49.536;8.500;2023-07-31T13:49:34;45.70;;;43.90;;
38240;SDS011;24037;49.536;8.500;2023-07-31T13:52:01;45.85;;;43.85;;
38240;SDS011;24037;49.536;8.500;2023-07-31T13:54:28;45.45;;;43.55;;
38240;SDS011;24037;49.536;8.500;2023-07-31T13:56:54;42.75;;;41.10;;
38240;SDS011;24037;49.536;8.500;2023-07-31T13:59:20;41.83;;;40.33;;
38240;SDS011;24037;49.536;8.500;2023-07-31T14:01:47;37.88;;;36.38;;
38240;SDS011;24037;49.536;8.500;2023-07-31T14:04:13;35.90;;;34.50;;
38240;SDS011;24037;49.536;8.500;2023-07-31T14:06:39;30.45;;;28.98;;
38240;SDS011;24037;49.536;8.500;2023-07-31T14:09:06;28.30;;;27.15;;
38240;SDS011;24037;49.536;8.500;2023-07-31T14:11:32;26.92;;;25.90;;
38240;SDS011;24037;49.536;8.500;2023-07-31T14:13:58;26.48;;;25.48;;
38240;SDS011;24037;49.536;8.500;2023-07-31T14:16:25;27.40;;;26.30;;
38240;SDS011;24037;49.536;8.500;2023-07-31T14:18:51;25.90;;;24.90;;
38240;SDS011;24037;49.536;8.500;2023-07-31T14:21:19;25.63;;;24.63;;
38240;SDS011;24037;49.536;8.500;2023-07-31T14:23:45;26.10;;;25.05;;
38240;SDS011;24037;49.536;8.500;2023-07-31T14:26:12;26.30;;;25.15;;
38240;SDS011;24037;49.536;8.500;2023-07-31T14:28:38;26.20;;;25.10;;
38240;SDS011;24037;49.536;8.500;2023-07-31T14:31:04;24.30;;;23.20;;
38240;SDS011;24037;49.536;8.500;2023-07-31T14:33:30;23.33;;;22.33;;
38240;SDS011;24037;49.536;8.500;2023-07-31T14:35:57;24.17;;;23.17;;
38240;SDS011;24037;49.536;8.500;2023-07-31T14:38:23;26.25;;;25.23;;
38240;SDS011;24037;49.536;8.500;2023-07-31T14:40:49;26.05;;;24.98;;
38240;SDS011;24037;49.536;8.500;2023-07-31T14:43:17;27.10;;;26.10;;
38240;SDS011;24037;49.536;8.500;2023-07-31T14:45:43;29.08;;;27.88;;